createdAt,value
2023-03-12T00:01:20.834Z,20.13
2023-03-12T00:03:49.511Z,19.53
2023-03-12T00:06:19.018Z,20.47
2023-03-12T00:08:47.308Z,20.67
2023-03-12T00:11:17.174Z,20.33
2023-03-12T00:13:45.771Z,20.63
2023-03-12T00:16:16.092Z,18.80
2023-03-12T00:18:54.635Z,20.10
2023-03-12T00:21:23.205Z,20.13
2023-03-12T00:23:52.548Z,20.07
2023-03-12T00:26:22.159Z,19.13
2023-03-12T00:28:51.268Z,20.00
2023-03-12T00:31:21.264Z,20.53
2023-03-12T00:33:51.360Z,18.77
2023-03-12T00:36:20.308Z,19.97
2023-03-12T00:38:48.912Z,17.73
2023-03-12T00:41:16.984Z,19.10
2023-03-12T00:43:45.176Z,19.03
2023-03-12T00:46:13.456Z,18.70
2023-03-12T00:48:42.254Z,19.13
2023-03-12T00:51:12.674Z,18.53
2023-03-12T00:53:40.984Z,19.63
2023-03-12T00:56:09.591Z,20.40
2023-03-12T00:58:37.763Z,17.67
2023-03-12T01:01:07.306Z,18.90
2023-03-12T01:03:35.582Z,18.63
2023-03-12T01:06:03.846Z,18.20
2023-03-12T01:08:47.216Z,18.47
2023-03-12T01:11:16.200Z,18.23
2023-03-12T01:13:44.801Z,19.33
2023-03-12T01:16:13.202Z,18.83
2023-03-12T01:18:41.304Z,18.33
2023-03-12T01:21:09.514Z,18.63
2023-03-12T01:23:39.049Z,18.23
2023-03-12T01:26:07.242Z,17.50
2023-03-12T01:28:35.334Z,17.27
2023-03-12T01:31:08.568Z,18.40
2023-03-12T01:33:36.793Z,16.43
2023-03-12T01:36:05.787Z,17.07
2023-03-12T01:38:34.011Z,17.43
2023-03-12T01:41:03.513Z,18.40
2023-03-12T01:43:33.634Z,18.50
2023-03-12T01:46:13.415Z,17.77
2023-03-12T01:48:45.777Z,16.97
2023-03-12T01:51:15.931Z,18.13
2023-03-12T01:53:47.947Z,16.87
2023-03-12T01:56:20.137Z,16.73
2023-03-12T01:58:51.857Z,15.17
2023-03-12T02:01:21.193Z,14.13
2023-03-12T02:03:53.123Z,16.17
2023-03-12T02:06:26.612Z,15.40
2023-03-12T02:08:55.823Z,14.20
2023-03-12T02:11:25.373Z,15.00
2023-03-12T02:13:53.567Z,15.23
2023-03-12T02:16:22.110Z,15.33
2023-03-12T02:18:52.728Z,14.47
2023-03-12T02:21:23.754Z,15.20
2023-03-12T02:24:00.129Z,14.37
2023-03-12T02:26:31.004Z,14.80
2023-03-12T02:29:01.710Z,14.50
2023-03-12T02:31:36.440Z,15.20
2023-03-12T02:34:04.746Z,14.73
2023-03-12T02:36:32.915Z,13.53
2023-03-12T02:39:01.092Z,13.93
2023-03-12T02:41:32.460Z,14.00
2023-03-12T02:44:04.468Z,14.33
2023-03-12T02:46:37.508Z,13.93
2023-03-12T02:49:05.783Z,14.00
2023-03-12T02:51:33.942Z,13.17
2023-03-12T02:54:02.252Z,13.10
2023-03-12T02:56:32.315Z,12.67
2023-03-12T02:59:03.245Z,12.40
2023-03-12T03:01:34.228Z,12.30
2023-03-12T03:04:02.843Z,12.13
2023-03-12T03:06:32.507Z,11.43
2023-03-12T03:09:01.008Z,10.73
2023-03-12T03:11:29.246Z,11.10
2023-03-12T03:13:58.794Z,10.43
2023-03-12T03:16:27.068Z,10.67
2023-03-12T03:18:55.271Z,10.53
2023-03-12T03:21:23.460Z,10.40
2023-03-12T03:23:52.092Z,9.30
2023-03-12T03:26:23.531Z,9.00
2023-03-12T03:28:52.064Z,8.93
2023-03-12T03:31:22.481Z,8.73
2023-03-12T03:33:51.039Z,8.60
2023-03-12T03:36:19.289Z,8.57
2023-03-12T03:38:49.531Z,8.73
2023-03-12T03:41:18.571Z,7.93
2023-03-12T03:43:47.072Z,8.53
2023-03-12T03:46:16.912Z,8.00
2023-03-12T03:48:46.667Z,7.80
2023-03-12T03:51:14.839Z,7.50
2023-03-12T03:53:42.956Z,8.17
2023-03-12T03:56:13.012Z,7.87
2023-03-12T03:58:41.315Z,7.33
2023-03-12T04:01:10.216Z,7.20
2023-03-12T04:03:38.454Z,7.37
2023-03-12T04:06:08.938Z,7.57
2023-03-12T04:08:38.212Z,7.30
2023-03-12T04:11:10.316Z,7.20
2023-03-12T04:13:38.898Z,7.17
2023-03-12T04:16:08.064Z,6.73
2023-03-12T04:18:37.118Z,6.13
2023-03-12T04:21:08.158Z,6.80
2023-03-12T04:23:36.999Z,6.93
2023-03-12T04:26:06.074Z,6.00
2023-03-12T04:28:34.667Z,6.13
2023-03-12T04:31:05.374Z,6.30
2023-03-12T04:33:35.644Z,6.70
2023-03-12T04:36:03.971Z,6.50
2023-03-12T04:38:33.720Z,6.10
2023-03-12T04:41:03.144Z,6.27
2023-03-12T04:43:32.187Z,6.30
2023-03-12T04:46:00.909Z,6.47
2023-03-12T04:48:29.347Z,5.80
2023-03-12T04:50:57.480Z,6.73
2023-03-12T04:53:26.603Z,6.90
2023-03-12T04:55:56.193Z,7.03
2023-03-12T04:58:24.757Z,6.90
2023-03-12T05:01:20.414Z,7.67
2023-03-12T05:03:48.541Z,8.20
2023-03-12T05:06:16.910Z,7.20
2023-03-12T05:08:45.381Z,6.47
2023-03-12T05:11:15.499Z,6.47
2023-03-12T05:13:44.129Z,6.43
2023-03-12T05:16:13.315Z,7.30
2023-03-12T05:18:41.758Z,6.93
2023-03-12T05:21:13.108Z,7.03
2023-03-12T05:23:42.640Z,7.10
2023-03-12T05:26:18.945Z,6.63
2023-03-12T05:28:47.500Z,7.17
2023-03-12T05:31:19.332Z,7.77
2023-03-12T05:33:48.298Z,7.57
2023-03-12T05:36:17.944Z,7.40
2023-03-12T05:38:46.513Z,7.73
2023-03-12T05:41:21.133Z,6.73
2023-03-12T05:43:49.869Z,6.83
2023-03-12T05:46:18.085Z,6.80
2023-03-12T05:48:46.301Z,7.00
2023-03-12T05:51:14.411Z,6.87
2023-03-12T05:53:42.733Z,7.17
2023-03-12T05:56:14.233Z,6.77
2023-03-12T05:58:43.871Z,7.57
2023-03-12T06:01:17.677Z,7.97
2023-03-12T06:03:46.096Z,8.30
2023-03-12T06:06:15.075Z,8.17
2023-03-12T06:08:44.158Z,8.27
2023-03-12T06:11:13.310Z,8.30
2023-03-12T06:13:43.493Z,8.93
2023-03-12T06:16:16.957Z,11.60
2023-03-12T06:18:45.462Z,10.17
2023-03-12T06:21:15.918Z,11.40
2023-03-12T06:23:44.261Z,11.20
2023-03-12T06:26:13.162Z,12.13
2023-03-12T06:28:41.699Z,10.67
2023-03-12T06:31:11.308Z,10.13
2023-03-12T06:33:39.512Z,10.23
2023-03-12T06:36:09.538Z,9.73
2023-03-12T06:38:38.286Z,10.27
2023-03-12T06:41:09.078Z,11.43
2023-03-12T06:43:38.448Z,9.67
2023-03-12T06:46:08.671Z,9.97
2023-03-12T06:48:41.317Z,10.97
2023-03-12T06:51:10.458Z,10.97
2023-03-12T06:53:42.116Z,11.73
2023-03-12T06:56:11.272Z,11.47
2023-03-12T06:58:39.979Z,11.60
2023-03-12T07:01:08.614Z,11.93
2023-03-12T07:03:38.446Z,11.20
2023-03-12T07:06:13.901Z,10.70
2023-03-12T07:08:43.394Z,10.57
2023-03-12T07:11:14.092Z,11.60
2023-03-12T07:13:42.902Z,11.80
2023-03-12T07:16:11.767Z,11.90
2023-03-12T07:18:41.543Z,11.37
2023-03-12T07:21:09.694Z,13.43
2023-03-12T07:23:37.922Z,14.30
2023-03-12T07:26:07.044Z,13.03
2023-03-12T07:28:35.289Z,14.50
2023-03-12T07:31:04.164Z,13.23
2023-03-12T07:33:32.814Z,19.37
2023-03-12T07:36:02.966Z,12.53
2023-03-12T07:38:31.363Z,24.67
2023-03-12T07:41:00.368Z,13.50
2023-03-12T07:43:28.750Z,17.03
2023-03-12T07:45:57.050Z,15.67
2023-03-12T07:48:25.431Z,12.87
2023-03-12T07:50:53.616Z,14.10
2023-03-12T07:53:23.286Z,13.17
2023-03-12T07:55:51.615Z,11.57
2023-03-12T07:58:19.986Z,12.67
2023-03-12T08:00:48.386Z,13.47
2023-03-12T08:03:17.491Z,15.37
2023-03-12T08:05:45.845Z,40.10
2023-03-12T08:08:14.257Z,21.10
2023-03-12T08:10:44.693Z,14.10
2023-03-12T08:13:12.953Z,13.77
2023-03-12T08:15:41.154Z,12.47
2023-03-12T08:18:09.351Z,13.40
2023-03-12T08:20:37.591Z,12.60
2023-03-12T08:23:05.791Z,11.57
2023-03-12T08:25:33.957Z,13.47
2023-03-12T08:28:03.626Z,12.10
2023-03-12T08:30:32.019Z,12.23
2023-03-12T08:33:00.329Z,15.07
2023-03-12T08:35:28.659Z,15.50
2023-03-12T08:37:57.581Z,14.17
2023-03-12T08:40:39.668Z,13.00
2023-03-12T08:43:09.198Z,11.50
2023-03-12T08:45:38.236Z,11.60
2023-03-12T08:48:07.696Z,13.17
2023-03-12T08:50:35.888Z,13.67
2023-03-12T08:53:04.095Z,13.83
2023-03-12T08:55:32.396Z,13.30
2023-03-12T08:58:04.773Z,13.37
2023-03-12T09:00:34.481Z,13.13
2023-03-12T09:03:02.847Z,12.73
2023-03-12T09:05:31.256Z,28.53
2023-03-12T09:07:59.954Z,14.10
2023-03-12T09:10:30.801Z,15.20
2023-03-12T09:12:59.310Z,14.70
2023-03-12T09:15:27.788Z,15.33
2023-03-12T09:17:57.713Z,12.80
2023-03-12T09:20:26.835Z,12.00
2023-03-12T09:22:55.099Z,13.53
2023-03-12T09:25:23.551Z,15.27
2023-03-12T09:27:51.736Z,14.20
2023-03-12T09:30:21.960Z,11.93
2023-03-12T09:32:50.189Z,14.90
2023-03-12T09:35:19.908Z,12.13
2023-03-12T09:37:50.424Z,13.17
2023-03-12T09:40:20.901Z,13.27
2023-03-12T09:42:53.495Z,11.47
2023-03-12T09:45:24.956Z,12.33
2023-03-12T09:47:55.315Z,13.00
2023-03-12T09:50:29.644Z,12.97
2023-03-12T09:53:02.623Z,13.33
2023-03-12T09:55:37.086Z,12.03
2023-03-12T09:58:05.324Z,12.70
2023-03-12T10:00:37.043Z,14.87
2023-03-12T10:03:28.691Z,14.03
2023-03-12T10:06:10.142Z,11.73
2023-03-12T10:08:52.701Z,13.27
2023-03-12T10:11:32.290Z,12.93
2023-03-12T10:14:23.948Z,11.43
2023-03-12T10:17:09.961Z,12.03
2023-03-12T10:19:56.992Z,12.63
2023-03-12T10:22:42.079Z,11.10
2023-03-12T10:25:22.008Z,13.37
2023-03-12T10:27:50.993Z,12.27
2023-03-12T10:30:23.357Z,11.63
2023-03-12T10:32:56.772Z,11.67
2023-03-12T10:35:27.417Z,11.33
2023-03-12T10:37:59.534Z,11.13
2023-03-12T10:40:30.072Z,10.80
2023-03-12T10:42:58.826Z,11.63
2023-03-12T10:45:32.981Z,16.07
2023-03-12T10:48:04.889Z,26.93
2023-03-12T10:50:34.880Z,13.80
2023-03-12T10:53:23.838Z,15.00
2023-03-12T10:56:08.108Z,15.73
2023-03-12T10:58:38.848Z,10.77
2023-03-12T11:01:17.011Z,10.47
2023-03-12T11:03:46.624Z,9.80
2023-03-12T11:06:23.090Z,9.23
2023-03-12T11:09:16.820Z,9.80
2023-03-12T11:11:47.620Z,9.83
2023-03-12T11:14:19.981Z,9.27
2023-03-12T11:16:48.867Z,9.87
2023-03-12T11:19:28.678Z,11.30
2023-03-12T11:21:59.643Z,9.87
2023-03-12T11:24:30.589Z,9.27
2023-03-12T11:27:04.732Z,9.60
2023-03-12T11:29:39.809Z,10.73
2023-03-12T11:32:16.187Z,16.30
2023-03-12T11:34:47.688Z,10.13
2023-03-12T11:37:22.950Z,10.63
2023-03-12T11:40:10.110Z,18.30
2023-03-12T11:42:50.762Z,12.50
2023-03-12T11:45:27.210Z,9.27
2023-03-12T11:48:06.706Z,9.97
2023-03-12T11:50:44.752Z,14.67
2023-03-12T11:53:36.504Z,9.33
2023-03-12T11:56:19.608Z,19.40
2023-03-12T11:58:58.058Z,13.23
2023-03-12T12:01:36.371Z,10.17
2023-03-12T12:04:41.024Z,9.33
2023-03-12T12:07:18.509Z,10.87
2023-03-12T12:09:52.788Z,12.27
2023-03-12T12:12:40.464Z,13.07
2023-03-12T12:15:21.106Z,14.87
2023-03-12T12:18:00.836Z,9.80
2023-03-12T12:20:40.574Z,8.30
2023-03-12T12:23:17.468Z,9.00
2023-03-12T12:26:05.605Z,11.97
2023-03-12T12:29:04.799Z,9.30
2023-03-12T12:31:40.499Z,7.50
2023-03-12T12:34:32.281Z,7.37
2023-03-12T12:37:21.673Z,9.43
2023-03-12T12:39:55.566Z,10.00
2023-03-12T12:42:27.583Z,9.37
2023-03-12T12:44:58.880Z,8.97
2023-03-12T12:47:35.586Z,7.40
2023-03-12T12:50:05.126Z,7.30
2023-03-12T12:52:33.820Z,7.53
2023-03-12T12:55:08.526Z,7.00
2023-03-12T12:57:40.652Z,8.00
2023-03-12T13:00:44.769Z,6.40
2023-03-12T13:03:17.598Z,8.93
2023-03-12T13:05:50.345Z,6.90
2023-03-12T13:08:53.352Z,7.40
2023-03-12T13:11:28.230Z,9.90
2023-03-12T13:14:16.088Z,8.23
2023-03-12T13:16:46.803Z,7.77
2023-03-12T13:19:28.065Z,10.83
2023-03-12T13:22:08.821Z,6.60
2023-03-12T13:24:47.458Z,9.47
2023-03-12T13:27:21.080Z,9.13
2023-03-12T13:29:56.182Z,6.10
2023-03-12T13:33:02.124Z,5.50
2023-03-12T13:35:34.410Z,8.17
2023-03-12T13:38:07.908Z,7.33
2023-03-12T13:41:06.550Z,5.33
2023-03-12T13:43:51.029Z,6.53
2023-03-12T13:46:30.974Z,6.10
2023-03-12T13:49:01.945Z,5.80
2023-03-12T13:51:31.663Z,8.93
2023-03-12T13:54:02.504Z,6.93
2023-03-12T13:56:32.470Z,5.87
2023-03-12T13:59:03.754Z,9.13
2023-03-12T14:01:36.892Z,6.43
2023-03-12T14:04:09.552Z,5.70
2023-03-12T14:06:54.922Z,20.47
2023-03-12T14:09:30.879Z,8.57
2023-03-12T14:12:09.513Z,12.47
2023-03-12T14:15:05.487Z,6.23
2023-03-12T14:17:35.766Z,19.00
2023-03-12T14:20:07.398Z,6.60
2023-03-12T14:22:39.632Z,7.57
2023-03-12T14:25:15.926Z,14.43
2023-03-12T14:27:47.508Z,6.80
2023-03-12T14:30:22.585Z,6.17
2023-03-12T14:32:56.183Z,5.53
2023-03-12T14:35:28.361Z,7.73
2023-03-12T14:38:05.007Z,8.77
2023-03-12T14:40:43.962Z,8.43
2023-03-12T14:43:26.449Z,9.23
2023-03-12T14:45:58.489Z,5.37
2023-03-12T14:48:30.522Z,8.63
2023-03-12T14:50:59.831Z,10.37
2023-03-12T14:53:31.161Z,5.93
2023-03-12T14:56:04.732Z,6.87
2023-03-12T14:58:33.629Z,5.93
2023-03-12T15:01:03.988Z,5.17
2023-03-12T15:03:57.649Z,5.10
2023-03-12T15:06:30.873Z,4.93
2023-03-12T15:09:03.809Z,8.80
2023-03-12T15:11:34.563Z,6.70
2023-03-12T15:14:06.750Z,4.87
2023-03-12T15:16:35.822Z,5.50
2023-03-12T15:19:04.875Z,6.67
2023-03-12T15:21:34.148Z,6.70
2023-03-12T15:24:06.853Z,5.20
2023-03-12T15:26:38.149Z,6.13
2023-03-12T15:29:26.273Z,6.10
2023-03-12T15:31:56.851Z,7.00
2023-03-12T15:34:33.485Z,5.57
2023-03-12T15:37:03.638Z,6.33
2023-03-12T15:39:35.382Z,6.50
2023-03-12T15:42:09.909Z,6.20
2023-03-12T15:44:46.459Z,6.17
2023-03-12T15:47:17.620Z,5.90
2023-03-12T15:49:52.764Z,6.27
2023-03-12T15:52:31.206Z,5.53
2023-03-12T15:55:09.211Z,6.77
2023-03-12T15:57:46.965Z,6.97
2023-03-12T16:00:21.411Z,8.00
2023-03-12T16:02:52.938Z,6.63
2023-03-12T16:05:22.489Z,5.33
2023-03-12T16:07:50.957Z,5.70
2023-03-12T16:10:22.996Z,5.17
2023-03-12T16:12:52.355Z,5.10
2023-03-12T16:15:26.975Z,5.40
2023-03-12T16:17:55.135Z,7.50
2023-03-12T16:20:23.343Z,5.50
2023-03-12T16:22:51.512Z,4.73
2023-03-12T16:25:21.406Z,5.33
2023-03-12T16:27:53.096Z,4.70
2023-03-12T16:30:26.537Z,5.03
2023-03-12T16:32:54.873Z,5.70
2023-03-12T16:35:23.746Z,5.03
2023-03-12T16:37:52.268Z,5.20
2023-03-12T16:40:33.017Z,4.53
2023-03-12T16:43:03.907Z,5.03
2023-03-12T16:45:35.211Z,5.10
2023-03-12T16:48:06.754Z,4.20
2023-03-12T16:50:35.027Z,5.60
2023-03-12T16:53:04.557Z,4.90
2023-03-12T16:55:47.021Z,4.70
2023-03-12T16:58:17.394Z,4.97
2023-03-12T17:00:46.275Z,3.90
2023-03-12T17:03:21.210Z,4.70
2023-03-12T17:06:07.996Z,5.13
2023-03-12T17:08:36.350Z,4.43
2023-03-12T17:11:15.581Z,4.47
2023-03-12T17:13:45.711Z,4.67
2023-03-12T17:16:14.290Z,4.60
2023-03-12T17:18:42.807Z,4.13
2023-03-12T17:21:13.301Z,12.57
2023-03-12T17:23:41.778Z,6.30
2023-03-12T17:26:11.861Z,5.57
2023-03-12T17:28:40.371Z,4.80
2023-03-12T17:31:09.027Z,5.20
2023-03-12T17:33:38.220Z,5.07
2023-03-12T17:36:08.191Z,5.10
2023-03-12T17:38:36.637Z,6.00
2023-03-12T17:41:09.341Z,5.67
2023-03-12T17:43:56.867Z,5.50
2023-03-12T17:46:25.216Z,4.70
2023-03-12T17:48:53.910Z,5.33
2023-03-12T17:51:22.249Z,6.50
2023-03-12T17:53:50.430Z,6.57
2023-03-12T17:56:19.246Z,6.63
2023-03-12T17:58:48.925Z,5.77
2023-03-12T18:01:17.972Z,6.00
2023-03-12T18:03:46.229Z,8.23
2023-03-12T18:06:14.582Z,8.50
2023-03-12T18:08:42.715Z,6.70
2023-03-12T18:11:10.986Z,8.07
2023-03-12T18:13:40.896Z,7.63
2023-03-12T18:16:10.620Z,6.97
2023-03-12T18:18:38.972Z,6.73
2023-03-12T18:21:07.330Z,6.33
2023-03-12T18:23:35.635Z,6.23
2023-03-12T18:26:04.413Z,5.63
2023-03-12T18:28:37.177Z,6.07
2023-03-12T18:31:05.636Z,6.90
2023-03-12T18:33:36.420Z,6.70
2023-03-12T18:36:05.496Z,6.80
2023-03-12T18:38:34.065Z,6.37
2023-03-12T18:41:30.454Z,5.57
2023-03-12T18:43:58.649Z,5.93
2023-03-12T18:46:26.955Z,6.87
2023-03-12T18:48:56.901Z,5.20
2023-03-12T18:51:25.094Z,5.73
2023-03-12T18:53:53.296Z,5.60
2023-03-12T18:56:21.533Z,4.97
2023-03-12T18:58:58.395Z,5.90
2023-03-12T19:01:26.692Z,5.47
2023-03-12T19:03:56.408Z,6.30
2023-03-12T19:06:24.672Z,5.97
2023-03-12T19:08:52.902Z,5.83
2023-03-12T19:11:21.043Z,6.57
2023-03-12T19:13:52.184Z,5.50
2023-03-12T19:16:22.565Z,6.20
2023-03-12T19:18:52.073Z,6.40
2023-03-12T19:21:21.631Z,5.90
2023-03-12T19:23:50.271Z,6.77
2023-03-12T19:26:18.462Z,6.27
2023-03-12T19:28:46.731Z,6.27
2023-03-12T19:31:15.182Z,6.47
2023-03-12T19:33:46.967Z,6.70
2023-03-12T19:36:15.117Z,7.23
2023-03-12T19:38:44.817Z,7.53
2023-03-12T19:41:13.077Z,7.07
2023-03-12T19:43:41.414Z,43.53
2023-03-12T19:46:09.658Z,19.77
2023-03-12T19:48:37.951Z,12.20
2023-03-12T19:51:07.505Z,9.83
2023-03-12T19:53:36.245Z,10.30
2023-03-12T19:56:06.489Z,8.83
2023-03-12T19:58:34.957Z,7.43
2023-03-12T20:01:04.404Z,7.33
2023-03-12T20:03:33.240Z,7.43
2023-03-12T20:06:01.522Z,7.37
2023-03-12T20:08:32.520Z,7.63
2023-03-12T20:11:06.689Z,7.40
2023-03-12T20:13:35.357Z,7.13
2023-03-12T20:16:03.947Z,6.90
2023-03-12T20:18:32.881Z,6.90
2023-03-12T20:21:01.943Z,5.70
2023-03-12T20:23:31.402Z,6.50
2023-03-12T20:25:59.581Z,6.83
2023-03-12T20:28:29.232Z,7.33
2023-03-12T20:30:57.379Z,6.33
2023-03-12T20:33:25.595Z,10.37
2023-03-12T20:35:53.875Z,17.43
2023-03-12T20:38:22.078Z,26.53
2023-03-12T20:40:50.269Z,9.80
2023-03-12T20:43:19.071Z,7.93
2023-03-12T20:45:50.063Z,7.83
2023-03-12T20:48:18.278Z,8.10
2023-03-12T20:50:46.521Z,8.47
2023-03-12T20:53:14.627Z,8.87
2023-03-12T20:55:43.068Z,9.17
2023-03-12T20:58:11.338Z,8.33
2023-03-12T21:00:39.394Z,9.33
2023-03-12T21:03:10.943Z,9.17
2023-03-12T21:05:39.196Z,9.40
2023-03-12T21:08:07.753Z,9.13
2023-03-12T21:10:37.678Z,8.80
2023-03-12T21:13:06.165Z,7.70
2023-03-12T21:15:34.330Z,8.10
2023-03-12T21:18:02.507Z,8.47
2023-03-12T21:20:32.142Z,12.63
2023-03-12T21:23:00.860Z,9.93
2023-03-12T21:25:44.903Z,7.60
2023-03-12T21:28:13.128Z,7.10
2023-03-12T21:30:41.436Z,6.87
2023-03-12T21:33:09.789Z,7.40
2023-03-12T21:35:39.306Z,7.80
2023-03-12T21:38:07.548Z,7.63
2023-03-12T21:40:37.013Z,18.20
2023-03-12T21:43:05.679Z,16.70
2023-03-12T21:45:35.689Z,11.70
2023-03-12T21:48:04.080Z,8.00
2023-03-12T21:50:32.819Z,7.00
2023-03-12T21:53:04.997Z,7.63
2023-03-12T21:55:33.182Z,9.27
2023-03-12T21:58:01.404Z,8.80
2023-03-12T22:00:29.562Z,9.13
2023-03-12T22:02:57.817Z,9.73
2023-03-12T22:05:25.926Z,9.50
2023-03-12T22:07:54.063Z,7.60
2023-03-12T22:10:23.668Z,6.97
2023-03-12T22:13:02.293Z,7.40
2023-03-12T22:15:31.397Z,57.00
2023-03-12T22:17:59.673Z,18.40
2023-03-12T22:20:27.969Z,9.13
2023-03-12T22:22:56.164Z,8.43
2023-03-12T22:25:25.805Z,8.47
2023-03-12T22:27:53.986Z,7.30
2023-03-12T22:30:22.353Z,7.57
2023-03-12T22:32:50.500Z,9.37
2023-03-12T22:35:25.549Z,10.57
2023-03-12T22:37:53.910Z,11.50
2023-03-12T22:40:22.273Z,14.50
2023-03-12T22:42:52.626Z,12.60
2023-03-12T22:45:21.254Z,13.53
2023-03-12T22:47:49.569Z,13.83
2023-03-12T22:50:18.185Z,13.10
2023-03-12T22:52:46.417Z,9.97
2023-03-12T22:55:14.710Z,11.13
2023-03-12T22:57:43.779Z,10.10
2023-03-12T23:00:17.905Z,8.53
2023-03-12T23:02:46.298Z,7.67
2023-03-12T23:05:14.467Z,6.87
2023-03-12T23:07:42.790Z,7.20
2023-03-12T23:10:12.128Z,6.30
2023-03-12T23:12:40.362Z,7.03
2023-03-12T23:15:09.689Z,7.20
2023-03-12T23:17:40.333Z,6.60
2023-03-12T23:20:09.926Z,6.20
2023-03-12T23:22:38.143Z,6.63
2023-03-12T23:25:07.155Z,7.27
2023-03-12T23:27:35.750Z,5.83
2023-03-12T23:30:04.472Z,5.60
2023-03-12T23:32:32.718Z,5.77
2023-03-12T23:35:02.393Z,5.30
2023-03-12T23:37:30.538Z,5.20
2023-03-12T23:39:58.752Z,4.80
2023-03-12T23:42:28.630Z,4.97
2023-03-12T23:44:56.803Z,4.50
2023-03-12T23:47:25.229Z,4.97
2023-03-12T23:49:53.383Z,4.77
2023-03-12T23:52:22.943Z,5.03
2023-03-12T23:54:51.095Z,5.30
2023-03-12T23:57:19.370Z,4.83
2023-03-12T23:59:47.700Z,5.93
